Time;durP1;ratioP1;P1;durP2;ratioP2;P2;SDS_P1;SDS_P2;PMS_P1;PMS_P2;Temp;Humidity;BMP_temperature;BMP_pressure;BME280_temperature;BME280_humidity;BME280_pressure;Samples;Min_cycle;Max_cycle;Signal;HPM_P1;HPM_P2
2024/01/14 00:00:14;;;;;;;0.52;0.52;;;4.40;99.90;;;;;;5109435;28;20558;-82
2024/01/14 00:02:40;;;;;;;0.60;0.60;;;4.40;99.90;;;;;;5113925;27;20131;-80
2024/01/14 00:05:07;;;;;;;0.50;0.50;;;4.40;99.90;;;;;;5128316;27;20076;-81
2024/01/14 00:07:32;;;;;;;0.60;0.60;;;4.40;99.90;;;;;;5074934;28;20044;-79
2024/01/14 00:09:58;;;;;;;0.60;0.60;;;4.50;99.90;;;;;;5106468;27;20039;-79
2024/01/14 00:12:27;;;;;;;0.60;0.60;;;4.50;99.90;;;;;;5113033;28;20075;-81
2024/01/14 00:14:53;;;;;;;0.50;0.50;;;4.60;99.90;;;;;;5097910;27;20071;-80
2024/01/14 00:17:19;;;;;;;0.52;0.52;;;4.20;99.90;;;;;;5115818;27;20123;-84
2024/01/14 00:19:45;;;;;;;0.60;0.60;;;4.20;99.90;;;;;;5115977;27;20040;-81
2024/01/14 00:22:10;;;;;;;0.60;0.60;;;4.10;99.90;;;;;;5095710;28;20062;-83
2024/01/14 00:24:36;;;;;;;0.50;0.50;;;4.10;99.90;;;;;;5095887;28;20052;-80
2024/01/14 00:27:05;;;;;;;0.60;0.60;;;4.10;99.90;;;;;;5114448;27;20040;-82
2024/01/14 00:29:30;;;;;;;0.52;0.52;;;4.10;99.90;;;;;;5103898;28;20036;-80
2024/01/14 00:31:58;;;;;;;0.60;0.60;;;4.10;99.90;;;;;;5096027;28;20043;-82
2024/01/14 00:34:24;;;;;;;0.60;0.60;;;4.10;99.90;;;;;;5098512;28;20118;-81
2024/01/14 00:36:50;;;;;;;0.50;0.50;;;4.20;99.90;;;;;;5112665;28;20460;-82
2024/01/14 00:39:16;;;;;;;0.65;0.65;;;4.10;99.90;;;;;;5079931;27;20105;-81
2024/01/14 00:41:42;;;;;;;0.60;0.60;;;4.10;99.90;;;;;;5101876;28;20048;-80
2024/01/14 00:44:08;;;;;;;0.68;0.68;;;4.90;99.90;;;;;;5094905;28;20465;-83
2024/01/14 00:46:34;;;;;;;0.55;0.55;;;4.90;99.90;;;;;;5077267;28;20189;-82
2024/01/14 00:49:00;;;;;;;;;;;4.10;99.90;;;;;;5112277;28;20035;-82
2024/01/14 00:51:25;;;;;;;0.70;0.70;;;4.00;99.90;;;;;;5096306;27;20364;-80
2024/01/14 00:53:51;;;;;;;0.60;0.60;;;4.20;99.90;;;;;;5101837;28;20039;-79
2024/01/14 00:56:17;;;;;;;0.50;0.50;;;4.00;99.90;;;;;;5059221;28;20174;-82
2024/01/14 00:58:43;;;;;;;0.60;0.60;;;4.00;99.90;;;;;;5095592;27;20081;-81
2024/01/14 01:01:09;;;;;;;0.60;0.60;;;4.80;99.90;;;;;;5094771;28;20047;-81
2024/01/14 01:03:34;;;;;;;0.60;0.60;;;4.00;99.90;;;;;;5096187;27;20109;-84
2024/01/14 01:06:00;;;;;;;0.70;0.70;;;4.00;99.90;;;;;;5112723;28;20115;-79
2024/01/14 01:08:26;;;;;;;0.63;0.63;;;4.00;99.90;;;;;;5096176;28;20040;-84
2024/01/14 01:10:52;;;;;;;0.60;0.60;;;5.20;99.90;;;;;;5079040;28;20089;-82
2024/01/14 01:13:18;;;;;;;0.60;0.60;;;3.90;99.90;;;;;;5095741;28;20089;-83
2024/01/14 01:15:43;;;;;;;0.60;0.60;;;3.90;99.90;;;;;;5130671;27;20395;-85
2024/01/14 01:18:09;;;;;;;0.50;0.50;;;3.80;99.90;;;;;;5114197;28;20054;-83
2024/01/14 01:20:35;;;;;;;0.70;0.70;;;3.80;99.90;;;;;;5098494;28;20050;-82
2024/01/14 01:23:00;;;;;;;0.70;0.70;;;3.80;99.90;;;;;;5094549;28;20122;-82
2024/01/14 01:25:26;;;;;;;0.55;0.55;;;3.70;99.90;;;;;;5074379;28;20079;-81
2024/01/14 01:27:52;;;;;;;0.50;0.50;;;3.80;99.90;;;;;;5041432;28;20036;-81
2024/01/14 01:30:18;;;;;;;0.65;0.65;;;3.70;99.90;;;;;;5094901;28;20039;-84
2024/01/14 01:32:45;;;;;;;0.63;0.63;;;3.70;99.90;;;;;;5094573;28;20472;-80
2024/01/14 01:35:10;;;;;;;0.55;0.55;;;3.70;99.90;;;;;;5112793;27;20048;-82
2024/01/14 01:37:37;;;;;;;0.63;0.63;;;3.70;99.90;;;;;;5119124;27;20070;-82
2024/01/14 01:40:06;;;;;;;0.47;0.47;;;4.40;99.90;;;;;;5097985;28;20779;-80
2024/01/14 01:42:34;;;;;;;0.60;0.60;;;3.70;99.90;;;;;;5087506;28;20126;-80
2024/01/14 01:45:06;;;;;;;0.52;0.52;;;4.00;99.90;;;;;;5074899;28;20051;-81
2024/01/14 01:47:32;;;;;;;;;;;3.70;99.90;;;;;;5086333;28;20044;-84
2024/01/14 01:49:58;;;;;;;0.60;0.60;;;3.60;99.90;;;;;;5077120;28;19922;-82
2024/01/14 01:52:24;;;;;;;;;;;3.60;99.90;;;;;;5112352;27;20036;-79
2024/01/14 01:54:50;;;;;;;0.40;0.40;;;3.50;99.90;;;;;;5092538;28;19972;-82
2024/01/14 01:57:18;;;;;;;1.60;1.50;;;3.50;99.90;;;;;;5110542;28;20046;-80
2024/01/14 01:59:45;;;;;;;0.60;0.60;;;3.60;99.90;;;;;;5063150;28;20046;-80
2024/01/14 02:02:11;;;;;;;0.47;0.47;;;3.80;99.90;;;;;;5115400;28;20156;-85
2024/01/14 02:04:38;;;;;;;0.60;0.60;;;3.60;99.90;;;;;;5094734;28;20039;-81
2024/01/14 02:07:04;;;;;;;0.60;0.60;;;3.70;99.90;;;;;;5123464;27;20038;-80
2024/01/14 02:09:32;;;;;;;0.50;0.50;;;3.70;99.90;;;;;;5105997;28;20077;-79
2024/01/14 02:12:00;;;;;;;0.60;0.60;;;3.70;99.90;;;;;;5094317;28;20056;-79
2024/01/14 02:14:26;;;;;;;0.65;0.65;;;3.30;99.90;;;;;;5113803;28;20082;-80
2024/01/14 02:16:55;;;;;;;0.70;0.70;;;3.30;99.90;;;;;;5083509;27;20471;-81
2024/01/14 02:19:21;;;;;;;0.60;0.60;;;3.20;99.90;;;;;;5114179;28;20063;-80
2024/01/14 02:21:52;;;;;;;0.60;0.60;;;3.20;99.90;;;;;;5098193;27;20059;-82
2024/01/14 02:24:27;;;;;;;0.57;0.57;;;3.10;99.90;;;;;;5122274;27;20103;-83
2024/01/14 02:26:53;;;;;;;0.60;0.60;;;3.10;99.90;;;;;;5115201;27;20082;-82
2024/01/14 02:29:20;;;;;;;0.70;0.70;;;3.20;99.90;;;;;;5118322;27;20578;-83
2024/01/14 02:31:46;;;;;;;0.60;0.60;;;3.20;99.90;;;;;;5102122;28;20038;-84
2024/01/14 02:34:13;;;;;;;0.60;0.60;;;4.20;99.90;;;;;;5099624;27;20455;-83
2024/01/14 02:36:44;;;;;;;0.60;0.60;;;3.20;99.90;;;;;;5120132;27;20054;-85
2024/01/14 02:39:10;;;;;;;0.60;0.60;;;3.20;99.90;;;;;;5115263;27;20043;-81
2024/01/14 02:41:35;;;;;;;0.60;0.60;;;3.10;99.90;;;;;;5122275;27;20499;-81
2024/01/14 02:44:02;;;;;;;1.00;1.00;;;3.20;99.90;;;;;;5100992;28;20054;-82
2024/01/14 02:46:28;;;;;;;0.60;0.60;;;3.20;99.90;;;;;;5103092;27;20048;-83
2024/01/14 02:48:54;;;;;;;0.60;0.60;;;3.40;99.90;;;;;;5121785;27;20144;-83
2024/01/14 02:51:20;;;;;;;1.40;1.38;;;4.10;99.90;;;;;;5114479;28;20086;-84
2024/01/14 02:53:47;;;;;;;0.70;0.70;;;3.00;99.90;;;;;;5097239;28;20091;-78
2024/01/14 02:56:13;;;;;;;0.60;0.60;;;3.10;99.90;;;;;;5096434;28;20043;-81
2024/01/14 02:58:39;;;;;;;0.60;0.60;;;3.10;99.90;;;;;;5116661;27;20543;-86
2024/01/14 03:01:05;;;;;;;0.60;0.60;;;3.10;99.90;;;;;;5120152;27;20641;-83
2024/01/14 03:03:31;;;;;;;;;;;2.20;99.90;;;;;;5080705;28;20050;-81
2024/01/14 03:05:57;;;;;;;0.70;0.70;;;3.10;99.90;;;;;;5114077;28;19919;-81
2024/01/14 03:08:22;;;;;;;0.70;0.70;;;3.00;99.90;;;;;;5096423;28;20039;-80
2024/01/14 03:10:48;;;;;;;0.55;0.55;;;3.90;99.90;;;;;;5115466;27;20594;-80
2024/01/14 03:13:15;;;;;;;0.52;0.52;;;3.00;99.90;;;;;;5116625;27;20047;-80
2024/01/14 03:15:44;;;;;;;0.60;0.60;;;2.90;99.90;;;;;;5113420;28;20047;-83
2024/01/14 03:18:11;;;;;;;3.53;1.35;;;2.90;99.90;;;;;;5096192;28;20044;-84
2024/01/14 03:20:37;;;;;;;2.28;1.08;;;2.90;99.90;;;;;;5113724;28;20035;-80
2024/01/14 03:23:04;;;;;;;0.60;0.60;;;2.90;99.90;;;;;;5097029;28;20388;-83
2024/01/14 03:25:29;;;;;;;0.68;0.68;;;3.00;99.90;;;;;;5096098;28;20044;-84
2024/01/14 03:27:55;;;;;;;0.60;0.60;;;2.90;99.90;;;;;;5096069;28;20039;-83
2024/01/14 03:30:21;;;;;;;0.50;0.50;;;2.90;99.90;;;;;;5096779;28;20050;-85
2024/01/14 03:32:47;;;;;;;0.60;0.60;;;3.00;99.90;;;;;;5079490;28;20169;-82
2024/01/14 03:35:12;;;;;;;0.60;0.60;;;3.20;99.90;;;;;;5113962;28;20044;-82
2024/01/14 03:37:38;;;;;;;0.80;0.80;;;3.00;99.90;;;;;;5096874;28;20047;-83
2024/01/14 03:40:05;;;;;;;0.70;0.70;;;3.10;99.90;;;;;;5063223;27;20540;-83
2024/01/14 03:42:31;;;;;;;0.60;0.60;;;3.10;99.90;;;;;;5121777;27;20075;-80
2024/01/14 03:44:56;;;;;;;0.70;0.70;;;3.10;99.90;;;;;;5095143;27;20099;-84
2024/01/14 03:47:22;;;;;;;0.65;0.65;;;3.00;99.90;;;;;;5106224;28;20100;-82
2024/01/14 03:49:48;;;;;;;0.52;0.52;;;4.10;99.90;;;;;;5102158;28;20034;-80
2024/01/14 03:52:14;;;;;;;0.50;0.50;;;4.20;99.90;;;;;;5100285;28;20031;-81
2024/01/14 03:54:40;;;;;;;0.57;0.57;;;3.20;99.90;;;;;;5079564;28;20476;-87
2024/01/14 03:57:05;;;;;;;0.70;0.70;;;3.60;99.90;;;;;;5096577;28;20146;-81
2024/01/14 03:59:31;;;;;;;0.60;0.60;;;3.20;99.90;;;;;;5097166;27;20047;-84
2024/01/14 04:01:57;;;;;;;0.60;0.60;;;3.20;99.90;;;;;;5122775;27;20081;-81
2024/01/14 04:04:23;;;;;;;0.63;0.63;;;3.20;99.90;;;;;;5101345;27;20063;-80
2024/01/14 04:06:50;;;;;;;0.60;0.60;;;3.20;99.90;;;;;;5095302;28;20117;-84
2024/01/14 04:09:16;;;;;;;0.55;0.55;;;3.20;99.90;;;;;;5097801;27;20047;-86
2024/01/14 04:11:42;;;;;;;0.57;0.57;;;3.20;99.90;;;;;;5111699;27;20043;-84
2024/01/14 04:14:09;;;;;;;0.63;0.63;;;3.10;99.90;;;;;;5114652;27;20032;-79
2024/01/14 04:16:41;;;;;;;0.55;0.55;;;3.10;99.90;;;;;;5097062;27;20130;-84
2024/01/14 04:19:08;;;;;;;0.70;0.70;;;3.10;99.90;;;;;;5101314;28;20044;-84
2024/01/14 04:21:34;;;;;;;0.60;0.60;;;3.10;99.90;;;;;;5112601;28;20031;-82
2024/01/14 04:24:02;;;;;;;0.65;0.65;;;3.30;99.90;;;;;;5112465;28;20084;-82
2024/01/14 04:26:28;;;;;;;0.60;0.60;;;3.00;99.90;;;;;;5095429;28;20050;-82
2024/01/14 04:28:54;;;;;;;;;;;3.00;99.90;;;;;;5101288;27;20499;-80
2024/01/14 04:31:20;;;;;;;2.75;2.65;;;3.00;99.90;;;;;;5138259;27;19984;-83
2024/01/14 04:33:47;;;;;;;0.50;0.50;;;3.00;99.90;;;;;;5126690;27;20516;-81
2024/01/14 04:36:14;;;;;;;0.60;0.60;;;3.00;99.90;;;;;;5134993;27;20043;-79
2024/01/14 04:38:40;;;;;;;0.60;0.60;;;2.90;99.90;;;;;;5100584;28;20051;-85
2024/01/14 04:41:06;;;;;;;0.60;0.60;;;2.90;99.90;;;;;;5097559;27;20417;-81
2024/01/14 04:43:32;;;;;;;0.50;0.50;;;2.90;99.90;;;;;;5101092;28;20047;-84
2024/01/14 04:45:58;;;;;;;0.52;0.52;;;2.90;99.90;;;;;;5095918;27;20038;-84
2024/01/14 04:48:23;;;;;;;0.55;0.55;;;2.90;99.90;;;;;;5119626;27;20092;-82
2024/01/14 04:50:51;;;;;;;0.60;0.60;;;2.80;99.90;;;;;;5112108;28;20073;-82
2024/01/14 04:53:17;;;;;;;0.55;0.55;;;2.90;99.90;;;;;;5114825;27;20047;-79
2024/01/14 04:55:42;;;;;;;1.20;1.10;;;2.90;99.90;;;;;;5095368;28;20902;-81
2024/01/14 04:58:11;;;;;;;0.60;0.60;;;2.90;99.90;;;;;;5112113;28;20055;-81
2024/01/14 05:00:37;;;;;;;0.60;0.60;;;2.80;99.90;;;;;;5118788;27;20035;-80
2024/01/14 05:03:02;;;;;;;0.60;0.60;;;2.90;99.90;;;;;;5086070;28;20035;-83
2024/01/14 05:05:28;;;;;;;0.70;0.70;;;2.90;99.90;;;;;;5096125;27;20502;-81
2024/01/14 05:07:54;;;;;;;0.70;0.70;;;2.90;99.90;;;;;;5126198;27;20063;-82
2024/01/14 05:10:19;;;;;;;0.50;0.50;;;3.50;99.90;;;;;;5094110;28;20031;-78
2024/01/14 05:12:45;;;;;;;0.60;0.60;;;2.80;99.90;;;;;;5110953;28;20131;-82
2024/01/14 05:15:12;;;;;;;0.57;0.57;;;2.80;99.90;;;;;;5113685;28;20100;-83
2024/01/14 05:17:38;;;;;;;0.60;0.60;;;2.70;99.90;;;;;;5096751;27;20122;-82
2024/01/14 05:20:04;;;;;;;0.60;0.60;;;2.60;99.90;;;;;;5131661;27;20439;-82
2024/01/14 05:22:30;;;;;;;0.63;0.63;;;2.50;99.90;;;;;;5089241;27;20045;-82
2024/01/14 05:24:56;;;;;;;0.70;0.70;;;2.50;99.90;;;;;;5111069;28;20118;-84
2024/01/14 05:27:21;;;;;;;0.68;0.68;;;2.40;99.90;;;;;;5094158;28;20115;-82
2024/01/14 05:29:47;;;;;;;0.60;0.60;;;2.60;99.90;;;;;;5061929;27;20043;-83
2024/01/14 05:32:16;;;;;;;0.70;0.70;;;2.30;99.90;;;;;;5126435;27;20045;-85
2024/01/14 05:34:42;;;;;;;0.70;0.70;;;2.30;99.90;;;;;;5110574;28;20559;-83
2024/01/14 05:37:08;;;;;;;0.70;0.70;;;2.20;99.90;;;;;;5077245;28;20126;-80
2024/01/14 05:39:34;;;;;;;;;;;2.40;99.90;;;;;;5111081;28;20078;-80
2024/01/14 05:42:00;;;;;;;0.70;0.70;;;2.20;99.90;;;;;;5079584;27;19951;-80
2024/01/14 05:44:26;;;;;;;0.70;0.70;;;2.30;99.90;;;;;;5100066;28;20140;-78
2024/01/14 05:46:53;;;;;;;0.80;0.80;;;2.10;99.90;;;;;;5079969;28;20086;-83
2024/01/14 05:49:19;;;;;;;0.70;0.70;;;2.10;99.90;;;;;;5078036;28;20090;-85
2024/01/14 05:51:45;;;;;;;;;;;3.20;99.90;;;;;;5111300;28;20039;-82
2024/01/14 05:54:11;;;;;;;0.60;0.60;;;2.00;99.90;;;;;;5076980;28;19927;-81
2024/01/14 05:56:37;;;;;;;0.70;0.70;;;2.30;99.90;;;;;;5110351;28;20051;-83
2024/01/14 05:59:03;;;;;;;0.55;0.55;;;2.00;99.90;;;;;;5129230;27;20398;-80
2024/01/14 06:01:29;;;;;;;0.60;0.60;;;2.10;99.90;;;;;;5093845;28;20048;-84
2024/01/14 06:03:56;;;;;;;0.65;0.65;;;2.10;99.90;;;;;;5110255;28;20044;-82
2024/01/14 06:06:22;;;;;;;0.60;0.60;;;2.10;99.90;;;;;;5110729;28;20134;-81
2024/01/14 06:08:48;;;;;;;;;;;2.20;99.90;;;;;;5074811;28;20380;-81
2024/01/14 06:11:14;;;;;;;0.60;0.60;;;2.20;99.90;;;;;;5093288;28;19916;-84
2024/01/14 06:13:41;;;;;;;0.60;0.60;;;2.30;99.90;;;;;;5127621;28;20044;-81
2024/01/14 06:16:08;;;;;;;0.70;0.70;;;2.30;99.90;;;;;;5096235;28;20503;-83
2024/01/14 06:18:33;;;;;;;0.65;0.65;;;2.40;99.90;;;;;;5112598;28;20074;-84
2024/01/14 06:21:01;;;;;;;0.60;0.60;;;2.40;99.90;;;;;;5082980;28;20086;-80
2024/01/14 06:23:28;;;;;;;0.70;0.70;;;2.50;99.90;;;;;;5107623;28;20043;-80
2024/01/14 06:25:54;;;;;;;0.60;0.60;;;2.60;99.90;;;;;;5113770;28;20047;-81
2024/01/14 06:28:19;;;;;;;;;;;3.50;99.90;;;;;;5116216;28;20116;-79
2024/01/14 06:30:45;;;;;;;0.50;0.50;;;3.00;99.90;;;;;;5093160;28;19920;-78
2024/01/14 06:33:11;;;;;;;0.70;0.70;;;2.80;99.90;;;;;;5060392;28;20040;-82
2024/01/14 06:35:37;;;;;;;0.60;0.60;;;2.80;99.90;;;;;;5093260;28;20834;-79
2024/01/14 06:38:03;;;;;;;0.60;0.60;;;2.90;99.90;;;;;;5112793;28;20043;-82
2024/01/14 06:40:29;;;;;;;1.00;1.00;;;2.70;99.90;;;;;;5110280;28;20049;-85
2024/01/14 06:42:55;;;;;;;2.15;2.05;;;2.70;99.90;;;;;;5094225;28;20044;-80
2024/01/14 06:45:21;;;;;;;0.55;0.55;;;2.60;99.90;;;;;;5099525;28;20127;-82
2024/01/14 06:47:46;;;;;;;0.57;0.57;;;2.50;99.90;;;;;;5093216;28;20046;-78
2024/01/14 06:50:13;;;;;;;0.60;0.60;;;2.50;99.90;;;;;;5112471;28;20118;-79
2024/01/14 06:52:39;;;;;;;0.60;0.60;;;2.40;99.90;;;;;;5130783;28;20100;-79
2024/01/14 06:55:05;;;;;;;0.73;0.73;;;2.30;99.90;;;;;;5112874;28;20039;-84
2024/01/14 06:57:31;;;;;;;;;;;2.20;99.90;;;;;;5093744;28;20050;-82
2024/01/14 06:59:59;;;;;;;1.25;1.17;;;2.20;99.90;;;;;;5111996;28;19964;-83
2024/01/14 07:02:25;;;;;;;0.60;0.60;;;2.50;99.90;;;;;;5097363;28;20476;-82
2024/01/14 07:04:51;;;;;;;0.70;0.70;;;2.20;99.90;;;;;;5097158;28;20105;-79
2024/01/14 07:07:17;;;;;;;0.50;0.50;;;2.50;99.90;;;;;;5097111;28;20047;-79
2024/01/14 07:09:43;;;;;;;0.60;0.60;;;2.20;99.90;;;;;;5114100;28;20039;-82
2024/01/14 07:12:09;;;;;;;0.50;0.50;;;2.30;99.90;;;;;;5123687;27;20054;-81
2024/01/14 07:14:35;;;;;;;;;;;2.20;99.90;;;;;;5100240;27;20047;-83
2024/01/14 07:17:01;;;;;;;0.70;0.70;;;2.30;99.90;;;;;;5119733;27;19930;-78
2024/01/14 07:19:27;;;;;;;0.50;0.50;;;2.50;99.90;;;;;;5096760;28;20047;-82
2024/01/14 07:21:52;;;;;;;0.70;0.70;;;3.20;99.90;;;;;;5096196;28;20051;-80
2024/01/14 07:24:18;;;;;;;0.60;0.60;;;3.40;99.90;;;;;;5076455;28;20059;-80
2024/01/14 07:26:44;;;;;;;1.25;1.25;;;2.40;99.90;;;;;;5112663;28;20148;-80
2024/01/14 07:29:10;;;;;;;0.80;0.80;;;2.40;99.90;;;;;;5113618;28;20120;-82
2024/01/14 07:31:35;;;;;;;0.70;0.70;;;2.50;99.90;;;;;;5096438;28;20605;-82
2024/01/14 07:34:01;;;;;;;0.57;0.57;;;2.60;99.90;;;;;;5099889;27;20122;-81
2024/01/14 07:36:27;;;;;;;0.70;0.70;;;2.60;99.90;;;;;;5110841;28;20047;-82
2024/01/14 07:38:54;;;;;;;1.13;1.13;;;2.60;99.90;;;;;;5116484;27;20070;-82
2024/01/14 07:41:20;;;;;;;0.65;0.65;;;2.60;99.90;;;;;;5106516;28;20043;-83
2024/01/14 07:43:46;;;;;;;0.65;0.65;;;2.60;99.90;;;;;;5113254;28;20365;-82
2024/01/14 07:46:12;;;;;;;0.60;0.60;;;2.60;99.90;;;;;;5106431;27;20051;-79
2024/01/14 07:48:38;;;;;;;;;;;2.60;99.90;;;;;;5110341;28;20046;-79
2024/01/14 07:51:04;;;;;;;0.60;0.60;;;2.70;99.90;;;;;;5120981;28;19920;-82
2024/01/14 07:53:30;;;;;;;0.80;0.80;;;2.50;99.90;;;;;;5113408;28;20044;-81
2024/01/14 07:55:55;;;;;;;0.57;0.57;;;2.40;99.90;;;;;;5112892;28;20043;-83
2024/01/14 07:58:21;;;;;;;0.70;0.70;;;2.40;99.90;;;;;;5097072;28;20078;-82
2024/01/14 08:00:47;;;;;;;0.50;0.50;;;2.30;99.90;;;;;;5096229;28;20040;-81
2024/01/14 08:03:13;;;;;;;;;;;2.30;99.90;;;;;;5096343;27;20075;-83
2024/01/14 08:05:39;;;;;;;0.60;0.60;;;3.20;99.90;;;;;;5133361;27;19977;-82
2024/01/14 08:08:06;;;;;;;;;;;2.40;99.90;;;;;;5109040;28;20046;-83
2024/01/14 08:10:32;;;;;;;;;;;2.20;99.90;;;;;;5114397;28;19920;-84
2024/01/14 08:12:58;;;;;;;0.70;0.70;;;2.30;99.90;;;;;;5096296;28;19923;-81
2024/01/14 08:15:24;;;;;;;0.70;0.70;;;2.30;99.90;;;;;;5062872;28;20112;-82
2024/01/14 08:17:50;;;;;;;0.60;0.60;;;2.20;99.90;;;;;;5113384;28;20066;-85
2024/01/14 08:20:16;;;;;;;0.60;0.60;;;2.20;99.90;;;;;;5076893;28;20048;-81
2024/01/14 08:22:41;;;;;;;0.60;0.60;;;2.20;99.90;;;;;;5089534;27;20043;-81
2024/01/14 08:25:08;;;;;;;0.70;0.70;;;2.60;99.90;;;;;;5101889;28;20151;-81
2024/01/14 08:27:34;;;;;;;0.68;0.68;;;2.20;99.90;;;;;;5075145;28;20123;-86
2024/01/14 08:30:00;;;;;;;0.73;0.73;;;2.10;99.90;;;;;;5103466;28;20047;-81
2024/01/14 08:32:26;;;;;;;0.70;0.70;;;2.20;99.90;;;;;;5112783;28;20039;-80
2024/01/14 08:34:51;;;;;;;0.80;0.80;;;2.20;99.90;;;;;;5112822;28;20040;-82
2024/01/14 08:37:17;;;;;;;0.70;0.70;;;2.20;99.90;;;;;;5095264;28;20434;-85
2024/01/14 08:39:43;;;;;;;0.60;0.60;;;2.10;99.90;;;;;;5075146;28;20048;-83
2024/01/14 08:42:09;;;;;;;0.60;0.60;;;2.70;99.90;;;;;;5111246;28;20059;-83
2024/01/14 08:44:34;;;;;;;0.60;0.60;;;2.10;99.90;;;;;;5112108;28;20523;-83
2024/01/14 08:47:01;;;;;;;0.60;0.60;;;2.10;99.90;;;;;;5095995;28;20048;-82
2024/01/14 08:49:29;;;;;;;0.65;0.65;;;2.10;99.90;;;;;;5119919;27;20032;-83
2024/01/14 08:51:56;;;;;;;1.00;0.93;;;2.20;99.90;;;;;;5113140;28;20391;-81
2024/01/14 08:54:22;;;;;;;0.70;0.70;;;2.50;99.90;;;;;;5113580;28;20203;-83
2024/01/14 08:56:48;;;;;;;0.75;0.75;;;2.50;99.90;;;;;;5112759;28;20043;-86
2024/01/14 08:59:14;;;;;;;0.70;0.70;;;2.20;99.90;;;;;;5096464;27;20559;-84
2024/01/14 09:01:40;;;;;;;0.70;0.70;;;2.20;99.90;;;;;;5129069;27;20039;-84
2024/01/14 09:04:06;;;;;;;0.70;0.70;;;2.20;99.90;;;;;;5115393;28;20050;-81
2024/01/14 09:06:32;;;;;;;0.70;0.70;;;2.30;99.90;;;;;;5097526;27;20071;-79
2024/01/14 09:08:57;;;;;;;0.80;0.80;;;2.30;99.90;;;;;;5118043;27;20035;-78
2024/01/14 09:11:24;;;;;;;0.60;0.60;;;2.40;99.90;;;;;;5095732;27;20168;-80
2024/01/14 09:13:50;;;;;;;0.60;0.60;;;2.40;99.90;;;;;;5101339;27;20491;-84
2024/01/14 09:16:16;;;;;;;0.60;0.60;;;2.60;99.90;;;;;;5098810;28;20051;-84
2024/01/14 09:18:42;;;;;;;0.70;0.70;;;2.50;99.90;;;;;;5081946;27;20044;-81
2024/01/14 09:21:10;;;;;;;0.70;0.70;;;2.60;99.90;;;;;;5101163;28;20035;-80
2024/01/14 09:23:36;;;;;;;0.52;0.52;;;2.60;99.90;;;;;;5094271;27;20047;-82
2024/01/14 09:26:02;;;;;;;0.50;0.50;;;2.70;99.90;;;;;;5127419;27;20047;-81
2024/01/14 09:28:28;;;;;;;0.60;0.60;;;2.60;99.90;;;;;;5111356;28;20046;-81
2024/01/14 09:30:54;;;;;;;0.55;0.55;;;2.80;99.90;;;;;;5113990;27;20051;-84
2024/01/14 09:33:20;;;;;;;0.50;0.50;;;3.60;99.90;;;;;;5107316;28;20039;-80
2024/01/14 09:35:45;;;;;;;4.88;1.17;;;4.10;99.90;;;;;;5111948;28;20043;-79
2024/01/14 09:38:11;;;;;;;0.60;0.60;;;2.90;99.90;;;;;;5119490;27;20096;-80
2024/01/14 09:40:37;;;;;;;0.50;0.50;;;2.90;99.90;;;;;;5094710;28;20341;-81
2024/01/14 09:43:06;;;;;;;0.60;0.60;;;3.00;99.90;;;;;;5096365;27;20502;-82
2024/01/14 09:45:35;;;;;;;0.70;0.70;;;3.00;99.90;;;;;;5109237;28;20100;-81
2024/01/14 09:48:02;;;;;;;0.60;0.60;;;3.10;99.90;;;;;;5094529;28;20044;-80
2024/01/14 09:50:32;;;;;;;0.57;0.57;;;3.10;99.90;;;;;;5111201;28;20094;-82
2024/01/14 09:53:00;;;;;;;0.60;0.60;;;3.10;99.90;;;;;;5094635;28;20039;-82
2024/01/14 09:55:25;;;;;;;0.50;0.50;;;3.20;99.90;;;;;;5117100;27;20039;-81
2024/01/14 09:57:52;;;;;;;0.50;0.50;;;3.20;99.90;;;;;;5080395;28;20105;-81
2024/01/14 10:00:22;;;;;;;0.60;0.60;;;3.30;99.90;;;;;;5073755;28;20043;-82
2024/01/14 10:02:48;;;;;;;0.60;0.60;;;3.20;99.90;;;;;;5091027;28;20036;-80
2024/01/14 10:05:18;;;;;;;0.45;0.45;;;3.30;99.90;;;;;;5082810;28;20047;-83
2024/01/14 10:07:46;;;;;;;0.50;0.50;;;3.40;99.90;;;;;;5093684;28;20042;-82
2024/01/14 10:10:12;;;;;;;0.60;0.60;;;3.40;99.90;;;;;;5110328;28;20467;-82
2024/01/14 10:12:38;;;;;;;0.68;0.68;;;4.10;99.90;;;;;;5096206;28;20055;-83
2024/01/14 10:15:04;;;;;;;0.60;0.60;;;3.70;99.90;;;;;;5116516;28;20388;-84
2024/01/14 10:17:31;;;;;;;0.50;0.50;;;3.70;99.90;;;;;;5094352;28;20079;-83
2024/01/14 10:20:00;;;;;;;0.50;0.50;;;3.80;99.90;;;;;;5113992;28;20519;-82
2024/01/14 10:22:27;;;;;;;0.60;0.60;;;3.90;99.90;;;;;;5097017;28;20085;-83
2024/01/14 10:24:54;;;;;;;0.60;0.60;;;4.10;99.90;;;;;;5081512;28;21003;-82
2024/01/14 10:27:21;;;;;;;0.60;0.60;;;4.20;99.90;;;;;;5098866;28;20051;-79
2024/01/14 10:29:48;;;;;;;0.40;0.40;;;4.40;99.90;;;;;;5095636;28;20165;-81
2024/01/14 10:32:14;;;;;;;0.50;0.50;;;4.50;99.90;;;;;;5109290;28;20484;-83
2024/01/14 10:34:41;;;;;;;0.63;0.63;;;4.00;99.90;;;;;;5078388;28;20392;-83
2024/01/14 10:37:07;;;;;;;0.50;0.50;;;4.80;99.90;;;;;;5097626;28;20048;-84
2024/01/14 10:39:34;;;;;;;;;;;4.80;99.90;;;;;;5115235;28;20051;-80
2024/01/14 10:42:00;;;;;;;0.50;0.50;;;4.80;99.90;;;;;;5098079;28;20037;-82
2024/01/14 10:44:27;;;;;;;0.60;0.60;;;4.70;99.90;;;;;;5113821;28;20081;-82
2024/01/14 10:46:53;;;;;;;0.60;0.60;;;4.70;99.90;;;;;;5113834;28;20077;-84
2024/01/14 10:49:26;;;;;;;0.45;0.45;;;4.70;99.90;;;;;;5134821;27;20058;-83
2024/01/14 10:52:07;;;;;;;0.60;0.60;;;5.00;99.90;;;;;;5110251;28;20492;-79
2024/01/14 10:54:55;;;;;;;0.60;0.60;;;4.70;99.90;;;;;;5090947;28;20046;-84
2024/01/14 10:57:28;;;;;;;0.40;0.40;;;4.80;99.90;;;;;;5099181;27;20050;-83
2024/01/14 11:00:00;;;;;;;0.47;0.47;;;4.80;99.90;;;;;;5119424;27;20426;-82
2024/01/14 11:02:29;;;;;;;0.47;0.47;;;4.90;99.90;;;;;;5097029;28;20046;-82
2024/01/14 11:04:55;;;;;;;0.50;0.50;;;4.80;99.90;;;;;;5077140;28;20093;-81
2024/01/14 11:07:22;;;;;;;0.40;0.40;;;4.90;99.90;;;;;;5103141;28;20144;-85
2024/01/14 11:09:49;;;;;;;0.75;0.75;;;4.90;99.90;;;;;;5077692;28;20078;-80
2024/01/14 11:12:30;;;;;;;0.40;0.40;;;4.90;99.90;;;;;;5100051;28;20125;-81
2024/01/14 11:15:25;;;;;;;0.50;0.50;;;4.80;99.90;;;;;;5097842;28;20039;-82
2024/01/14 11:18:01;;;;;;;1.45;1.45;;;4.80;99.90;;;;;;5116936;28;20035;-81
2024/01/14 11:20:32;;;;;;;0.60;0.60;;;4.90;99.90;;;;;;5097594;28;20055;-87
2024/01/14 11:22:58;;;;;;;0.50;0.50;;;4.90;99.90;;;;;;5113735;28;20187;-81
2024/01/14 11:25:34;;;;;;;0.70;0.70;;;4.80;99.90;;;;;;5097331;28;20047;-80
2024/01/14 11:28:05;;;;;;;0.60;0.60;;;4.80;99.90;;;;;;5077745;28;20081;-84
2024/01/14 11:31:02;;;;;;;0.50;0.50;;;4.70;99.90;;;;;;5123729;27;20134;-83
2024/01/14 11:33:29;;;;;;;0.60;0.60;;;4.60;99.90;;;;;;5063183;28;20389;-86
2024/01/14 11:35:56;;;;;;;0.43;0.43;;;4.80;99.90;;;;;;5099744;27;20043;-82
2024/01/14 11:38:34;;;;;;;;;;;4.80;99.90;;;;;;5112869;28;20039;-82
2024/01/14 11:41:29;;;;;;;0.73;0.73;;;5.00;99.90;;;;;;5116593;27;19938;-83
2024/01/14 11:44:09;;;;;;;0.50;0.50;;;5.10;99.90;;;;;;5116719;27;20032;-84
2024/01/14 11:46:42;;;;;;;0.40;0.40;;;5.20;99.90;;;;;;5113519;28;20044;-85
2024/01/14 11:49:12;;;;;;;0.50;0.50;;;5.30;99.90;;;;;;5100680;27;20437;-82
2024/01/14 11:51:43;;;;;;;0.40;0.40;;;5.30;99.90;;;;;;5116612;28;20443;-81
2024/01/14 11:54:12;;;;;;;0.50;0.50;;;5.20;99.90;;;;;;5101764;28;20031;-82
2024/01/14 11:56:39;;;;;;;0.88;0.88;;;5.00;99.90;;;;;;5097951;28;20039;-85
2024/01/14 11:59:09;;;;;;;0.50;0.50;;;4.90;99.90;;;;;;5096450;28;20042;-83
2024/01/14 12:01:36;;;;;;;0.50;0.50;;;4.80;99.90;;;;;;5114558;28;20358;-80
2024/01/14 12:04:11;;;;;;;0.50;0.50;;;4.80;99.90;;;;;;5114411;28;20054;-86
2024/01/14 12:06:46;;;;;;;0.60;0.60;;;4.80;99.90;;;;;;5081710;28;20104;-83
2024/01/14 12:09:15;;;;;;;0.55;0.55;;;4.90;99.90;;;;;;5114944;28;20067;-85
2024/01/14 12:11:42;;;;;;;0.70;0.70;;;5.00;99.90;;;;;;5082424;28;20484;-81
2024/01/14 12:14:08;;;;;;;0.40;0.40;;;5.20;99.90;;;;;;5113517;28;20048;-82
2024/01/14 12:16:35;;;;;;;0.60;0.60;;;5.40;99.90;;;;;;5116700;27;20136;-83
2024/01/14 12:19:18;;;;;;;0.50;0.50;;;5.60;99.90;;;;;;5092024;28;20497;-81
2024/01/14 12:21:44;;;;;;;0.50;0.50;;;5.70;99.90;;;;;;5116624;27;20047;-84
2024/01/14 12:24:13;;;;;;;0.50;0.50;;;6.30;99.90;;;;;;5111881;28;20054;-84
2024/01/14 12:26:39;;;;;;;0.50;0.50;;;5.90;99.90;;;;;;5098072;28;20048;-82
2024/01/14 12:29:05;;;;;;;0.50;0.50;;;5.90;99.90;;;;;;5120194;28;20561;-84
2024/01/14 12:31:34;;;;;;;0.55;0.55;;;6.00;99.90;;;;;;5098327;28;20475;-83
2024/01/14 12:34:05;;;;;;;0.60;0.60;;;6.00;99.90;;;;;;5096311;28;20073;-85
2024/01/14 12:36:33;;;;;;;1.63;1.63;;;6.00;99.90;;;;;;5095491;28;20047;-80
2024/01/14 12:38:59;;;;;;;0.43;0.43;;;5.90;99.90;;;;;;5113561;28;20044;-82
2024/01/14 12:41:25;;;;;;;0.50;0.50;;;5.80;99.90;;;;;;5096117;28;20051;-86
2024/01/14 12:43:50;;;;;;;0.50;0.50;;;5.80;99.90;;;;;;5087756;27;20047;-82
2024/01/14 12:46:18;;;;;;;0.50;0.50;;;5.60;99.90;;;;;;5104514;28;20561;-82
2024/01/14 12:48:44;;;;;;;0.50;0.50;;;5.60;99.90;;;;;;5112764;28;20046;-84
2024/01/14 12:51:10;;;;;;;0.60;0.60;;;5.50;99.90;;;;;;5098888;27;20118;-82
2024/01/14 12:53:36;;;;;;;0.47;0.47;;;5.40;99.90;;;;;;5110556;28;20036;-80
2024/01/14 12:56:12;;;;;;;0.45;0.45;;;5.40;99.90;;;;;;5097241;28;20036;-81
2024/01/14 12:58:39;;;;;;;1.27;1.25;;;5.50;99.90;;;;;;5119176;27;20099;-82
2024/01/14 13:01:05;;;;;;;0.50;0.50;;;5.50;99.90;;;;;;5096016;28;20063;-83